Date,TemperatureHighF,TemperatureAvgF,TemperatureLowF,DewpointHighF,DewpointAvgF,DewpointLowF,HumidityHigh,HumidityAvg,HumidityLow,PressureMaxIn,PressureMinIn,WindSpeedMaxMPH,WindSpeedAvgMPH,GustSpeedMaxMPH,PrecipitationSumIn
2012-1-1,47.9,42.7,38.5,40.0,35.2,30.0,81,75,65,30.33,30.03,2,0,7,0.00
2012-1-2,53.4,47.2,43.2,47.0,40.6,36.0,91,78,64,30.18,29.79,8,1,18,0.00
2012-1-3,52.0,48.4,44.9,48.0,45.1,42.0,99,88,78,30.24,30.05,6,2,17,0.00
2012-1-4,52.8,48.8,45.8,48.0,45.7,43.0,98,89,72,30.07,29.89,7,2,21,0.00
2012-1-5,47.3,42.9,39.6,44.0,39.6,37.0,95,88,77,30.34,30.06,10,2,17,0.00
2012-1-6,41.7,40.2,38.9,39.0,38.0,37.0,96,91,88,30.34,30.25,5,1,8,0.00
2012-1-7,43.8,41.4,40.1,42.0,39.4,37.0,100,92,88,30.44,30.33,3,1,10,0.00
2012-1-8,48.3,45.6,42.9,44.0,42.0,41.0,96,87,78,30.36,30.16,5,1,10,0.00
2012-1-9,48.7,46.2,43.5,45.0,42.3,34.0,91,86,70,30.28,30.15,7,2,10,0.00
2012-1-10,43.4,40.5,37.2,37.0,31.5,20.0,84,71,50,30.58,30.28,10,5,13,0.00
2012-1-11,39.3,37.6,36.6,35.0,26.0,16.0,89,65,42,30.56,30.42,7,3,12,0.00
2012-1-12,41.3,37.1,34.2,34.0,29.9,23.0,90,76,55,30.42,30.30,7,1,12,0.00
2012-1-13,39.5,37.4,34.2,36.0,34.9,33.0,96,90,85,30.34,30.07,5,1,8,0.00
2012-1-14,39.8,35.2,31.8,37.0,32.5,30.0,98,90,72,30.01,29.84,5,2,11,0.00
2012-1-15,35.9,33.4,30.2,33.0,29.6,27.0,93,86,72,30.09,29.96,6,2,8,0.05
2012-1-16,35.6,33.3,31.6,34.0,31.0,27.0,96,91,76,30.10,29.90,6,1,8,0.02
2012-1-17,36.0,32.6,28.3,33.0,29.8,26.0,97,89,73,29.98,29.77,8,1,9,0.00
2012-1-18,28.4,24.7,18.1,26.0,21.8,15.0,94,88,78,29.98,29.71,6,2,17,0.01
2012-11-13,49.1,47.7,46.5,49.0,47.4,46.0,99,98,97,30.18,30.12,2,0,8,0.01
2012-11-14,48.1,45.1,43.0,48.0,44.9,43.0,99,99,95,30.32,30.17,2,0,4,0.02
2012-11-15,44.2,42.2,40.4,44.0,41.7,40.0,99,98,94,30.30,29.94,5,1,8,0.00
2012-11-16,49.7,44.6,40.6,46.0,42.4,40.0,99,92,82,29.94,29.62,3,0,11,0.01
2012-11-17,54.5,47.8,43.1,48.0,44.7,42.0,98,89,72,29.63,29.36,10,2,18,0.01
2012-11-18,48.5,45.8,42.9,46.0,43.0,42.0,98,90,81,29.67,29.38,9,2,15,0.01
2012-11-19,49.2,47.5,46.1,48.0,46.8,46.0,100,97,89,29.51,29.28,5,1,11,0.00
2012-11-28,48.7,45.0,42.8,47.0,44.1,41.0,98,96,92,29.65,29.58,4,0,10,0.02
2012-11-29,55.1,51.3,48.2,48.0,46.2,45.0,92,83,70,29.65,29.37,7,2,13,0.01
2012-11-30,53.1,49.9,47.8,50.0,47.2,45.0,98,90,73,29.38,29.28,7,2,18,0.01
2012-12-1,49.8,47.3,45.3,47.0,45.2,43.0,98,92,84,29.52,29.25,12,2,18,0.01
2012-12-2,48.5,45.2,42.4,46.0,44.2,42.0,99,96,81,29.70,29.13,5,1,13,0.00
2012-12-3,50.9,45.5,42.0,47.0,44.2,42.0,99,95,79,29.96,29.53,9,2,12,0.01
2012-12-4,51.3,46.3,40.5,46.0,43.3,39.0,98,90,74,29.77,29.40,7,2,21,0.01
2012-12-5,45.6,42.4,39.0,41.0,39.6,36.0,98,89,82,30.15,29.78,8,1,15,0.01
2012-12-6,42.3,40.9,38.5,42.0,40.5,38.0,99,98,97,30.13,30.02,5,1,7,0.00
2012-12-7,43.3,41.3,38.2,42.0,39.1,35.0,99,92,78,30.11,29.91,9,2,11,0.01
2012-12-8,41.8,38.8,37.1,38.0,36.0,35.0,95,90,81,30.34,30.11,3,1,6,0.00
2012-12-9,39.7,38.6,37.7,40.0,37.4,35.0,99,95,85,30.37,30.29,2,0,7,0.01
2012-12-10,44.7,41.5,37.5,45.0,41.3,37.0,100,99,98,30.41,30.05,3,0,5,0.00
2012-12-11,44.3,42.9,41.3,44.0,42.2,41.0,99,97,93,30.03,29.52,6,1,11,0.00
2012-12-12,43.6,42.2,41.3,43.0,40.6,39.0,99,94,88,30.03,29.59,6,3,8,0.01
2012-12-13,43.0,40.9,39.8,40.0,39.5,39.0,98,94,87,30.04,29.76,4,1,10,0.01
2012-12-14,41.6,39.4,36.2,40.0,37.7,35.0,99,94,85,29.92,29.76,8,2,10,0.00
2012-12-15,40.5,39.1,37.5,39.0,36.8,35.0,98,91,82,29.87,29.46,13,2,22,0.01
2012-12-16,42.4,39.2,38.2,42.0,37.9,36.0,98,95,90,29.69,28.92,8,1,12,0.00
2012-12-17,43.1,38.5,35.8,43.0,36.5,33.0,99,92,81,29.83,28.91,8,2,19,0.01
2012-12-18,38.3,35.6,33.5,38.0,35.0,33.0,99,97,94,29.93,29.83,4,1,10,0.01
2012-12-19,42.3,39.3,36.6,39.0,36.9,35.0,95,91,88,29.85,29.48,8,3,21,0.01
2012-12-20,41.4,40.1,37.8,41.0,39.5,37.0,99,98,94,29.79,29.46,4,1,11,0.01
2012-12-21,44.8,39.4,36.7,40.0,36.8,34.0,98,90,78,29.77,29.67,4,1,9,0.00
2012-12-22,45.4,41.9,38.3,43.0,38.9,36.0,96,89,82,29.67,29.46,14,1,20,0.01
2012-12-23,44.7,42.6,39.3,40.0,38.9,38.0,97,87,78,29.81,29.62,7,1,14,0.01
2012-12-24,41.6,40.0,38.9,41.0,39.5,38.0,99,98,93,30.14,29.81,2,0,10,0.01
2012-12-25,41.4,39.6,36.8,39.0,36.8,33.0,98,90,71,30.02,29.62,5,1,14,0.00
2012-12-26,43.6,41.9,39.8,42.0,39.6,38.0,98,92,87,29.91,29.67,4,0,8,0.00
2012-12-27,43.0,40.8,39.6,43.0,40.5,39.0,99,99,98,30.14,29.92,3,0,6,0.01
2012-12-28,45.2,41.4,39.8,43.0,40.2,39.0,99,95,87,30.15,30.10,2,0,6,0.00
2012-12-29,40.7,39.7,38.5,40.0,39.5,38.0,99,99,98,30.24,30.14,2,0,3,0.01
2012-12-30,38.8,36.2,34.1,39.0,35.9,34.0,100,99,98,30.32,30.24,3,0,5,0.00
2012-12-31,39.5,36.6,34.7,38.0,36.0,34.0,99,97,94,30.46,30.26,5,1,6,0.01
2013-1-1,39.3,36.8,34.4,38.0,35.2,32.0,97,94,87,30.52,30.37,5,1,9,0.00